Time;durP1;ratioP1;P1;durP2;ratioP2;P2;SDS_P1;SDS_P2;PMS_P1;PMS_P2;Temp;Humidity;BMP_temperature;BMP_pressure;BME280_temperature;BME280_humidity;BME280_pressure;Samples;Min_cycle;Max_cycle;Signal;HPM_P1;HPM_P2
2021/03/04 01:34:02;;;;;;;0.50;0.50;;;2.80;99.90;;;;;;5153786;23;20216;-80
2021/03/04 01:36:34;;;;;;;0.50;0.50;;;3.10;99.90;;;;;;4925282;29;20196;-80
2021/03/04 01:39:03;;;;;;;0.60;0.60;;;2.60;99.90;;;;;;4925089;29;20254;-80
2021/03/04 03:59:45;;;;;;;0.50;0.50;;;1.50;99.90;;;;;;5752523;23;20219;-81
2021/03/04 04:33:26;;;;;;;0.40;0.40;;;2.00;99.90;;;;;;5853113;23;20435;-80
2021/03/04 06:32:42;;;;;;;0.50;0.50;;;2.00;99.90;;;;;;5362855;23;20241;-80
2021/03/04 06:38:45;;;;;;;0.50;0.50;;;1.80;99.90;;;;;;5191447;23;20245;-81
2021/03/04 06:41:20;;;;;;;0.50;0.50;;;4.50;99.90;;;;;;4922980;29;20195;-81
2021/03/04 07:02:34;;;;;;;0.50;0.50;;;2.30;99.90;;;;;;5272236;23;20225;-81
2021/03/04 07:05:03;;;;;;;0.50;0.50;;;4.40;99.90;;;;;;4925457;29;20229;-79
2021/03/04 07:07:30;;;;;;;0.60;0.60;;;1.60;99.90;;;;;;4913545;29;20238;-78
2021/03/04 07:09:57;;;;;;;0.50;0.50;;;2.30;99.90;;;;;;4915351;29;20205;-79
2021/03/04 07:12:24;;;;;;;0.50;0.50;;;2.30;99.90;;;;;;4917146;29;20205;-79
2021/03/04 07:14:52;;;;;;;0.50;0.50;;;2.30;99.90;;;;;;4915902;29;20201;-80
2021/03/04 07:17:21;;;;;;;0.50;0.50;;;2.30;99.90;;;;;;4915650;29;20213;-80
2021/03/04 07:19:51;;;;;;;0.52;0.52;;;2.50;99.90;;;;;;4918257;29;20628;-79
2021/03/04 07:22:19;;;;;;;0.50;0.50;;;2.40;99.90;;;;;;4918886;29;20209;-79
2021/03/04 07:24:47;;;;;;;0.50;0.50;;;2.50;99.90;;;;;;4960266;23;20229;-82
2021/03/04 07:27:17;;;;;;;0.50;0.50;;;2.40;99.90;;;;;;4936759;29;20245;-80
2021/03/04 07:29:46;;;;;;;0.50;0.50;;;2.30;99.90;;;;;;4935518;29;20237;-81
2021/03/04 07:32:16;;;;;;;0.50;0.50;;;1.80;99.90;;;;;;5400448;23;20290;-81
2021/03/04 07:34:55;;;;;;;0.50;0.50;;;3.30;99.90;;;;;;4959259;23;20314;-81
2021/03/04 07:37:22;;;;;;;0.50;0.50;;;2.40;99.90;;;;;;4931001;29;20189;-81
2021/03/04 07:40:00;;;;;;;0.52;0.52;;;4.20;99.90;;;;;;4934190;29;20193;-81
2021/03/04 07:42:41;;;;;;;0.60;0.60;;;2.60;99.90;;;;;;4935812;29;20192;-81
2021/03/04 07:45:15;;;;;;;0.50;0.50;;;4.90;99.90;;;;;;5013902;23;2756919;-80
2021/03/04 07:47:44;;;;;;;0.50;0.50;;;2.10;99.90;;;;;;4965026;23;20299;-79
2021/03/04 07:50:15;;;;;;;0.50;0.50;;;4.00;99.90;;;;;;4935672;29;20209;-79
2021/03/04 07:55:38;;;;;;;0.60;0.60;;;2.70;99.90;;;;;;5791364;23;20224;-80
2021/03/04 07:58:13;;;;;;;0.50;0.50;;;4.80;99.90;;;;;;4933794;29;20268;-81
2021/03/04 08:03:15;;;;;;;0.50;0.50;;;2.70;99.90;;;;;;5333927;23;20255;-80
2021/03/04 08:36:53;;;;;;;0.50;0.50;;;2.80;99.90;;;;;;5736310;23;20280;-80
2021/03/04 09:10:48;;;;;;;0.50;0.50;;;3.00;99.90;;;;;;5346377;23;20244;-79
2021/03/04 09:13:22;;;;;;;0.50;0.50;;;3.00;99.90;;;;;;4946209;23;20248;-79
2021/03/04 09:15:55;;;;;;;0.50;0.50;;;2.10;99.90;;;;;;5064761;23;20284;-79
2021/03/04 09:18:30;;;;;;;0.60;0.60;;;5.20;99.90;;;;;;5069734;23;20255;-79
2021/03/04 09:21:09;;;;;;;0.50;0.50;;;2.80;99.90;;;;;;4903492;29;20206;-82
2021/03/04 09:26:33;;;;;;;;;;;;;;;;;;;;;
2021/03/04 11:04:23;;;;;;;0.60;0.60;;;4.20;99.90;;;;;;4945016;23;20233;-84
2021/03/04 11:07:19;;;;;;;0.50;0.50;;;4.00;99.90;;;;;;4915569;29;20213;-84
2021/03/04 11:09:53;;;;;;;0.60;0.60;;;2.80;99.90;;;;;;4915375;29;20253;-83
2021/03/04 11:12:22;;;;;;;0.55;0.55;;;5.60;99.90;;;;;;4902646;29;20213;-84
2021/03/04 11:15:18;;;;;;;0.50;0.50;;;5.70;99.90;;;;;;4915935;29;20210;-83
2021/03/04 11:17:44;;;;;;;0.50;0.50;;;4.60;99.90;;;;;;4894600;29;20225;-83
2021/03/04 11:20:13;;;;;;;0.50;0.50;;;3.60;99.90;;;;;;4898445;29;20237;-83
2021/03/04 11:22:40;;;;;;;0.60;0.60;;;6.90;99.90;;;;;;4899394;29;20217;-83
2021/03/04 11:25:07;;;;;;;0.60;0.60;;;5.10;99.90;;;;;;4918507;29;20294;-84
2021/03/04 11:27:36;;;;;;;0.60;0.60;;;4.40;99.90;;;;;;4907505;29;20229;-84
2021/03/04 11:30:24;;;;;;;0.60;0.60;;;5.10;99.90;;;;;;4903930;29;20214;-84
2021/03/04 11:32:52;;;;;;;0.50;0.50;;;5.30;99.90;;;;;;4909945;29;20213;-85
2021/03/04 11:35:29;;;;;;;0.50;0.50;;;3.10;99.90;;;;;;5664990;23;20213;-83
2021/03/04 11:44:02;;;;;;;0.60;0.60;;;4.60;99.90;;;;;;5991814;23;21652;31
2021/03/04 11:46:31;;;;;;;0.50;0.50;;;4.00;99.90;;;;;;5369204;23;20339;-83
2021/03/04 11:48:58;;;;;;;0.60;0.60;;;4.40;99.90;;;;;;4933983;29;20186;-83
2021/03/04 11:51:31;;;;;;;0.60;0.60;;;5.20;99.90;;;;;;4915093;29;20230;-82
2021/03/04 11:53:59;;;;;;;0.60;0.60;;;7.50;99.90;;;;;;4921451;29;20216;-83
2021/03/04 11:56:29;;;;;;;0.50;0.50;;;3.50;99.90;;;;;;4938421;29;20213;-82
2021/03/04 11:59:11;;;;;;;0.50;0.50;;;6.40;99.90;;;;;;4940012;29;20209;-82
2021/03/04 12:01:41;;;;;;;0.60;0.60;;;4.70;99.90;;;;;;4927300;29;20197;-84
2021/03/04 12:04:27;;;;;;;;;;;;;;;;;;;;;
2021/03/04 12:07:00;;;;;;;0.50;0.50;;;5.50;99.90;;;;;;4916517;29;20290;-84
2021/03/04 12:09:27;;;;;;;0.52;0.52;;;5.10;99.90;;;;;;4923528;29;20572;-83
2021/03/04 12:11:53;;;;;;;0.50;0.50;;;4.50;99.90;;;;;;4921050;29;20213;-83
2021/03/04 12:14:21;;;;;;;0.52;0.52;;;4.80;99.90;;;;;;4912112;29;20556;-82
2021/03/04 12:16:48;;;;;;;0.60;0.60;;;4.70;99.90;;;;;;4912502;29;20205;-83
2021/03/04 12:19:14;;;;;;;0.50;0.50;;;4.40;99.90;;;;;;4913197;29;20679;-83
2021/03/04 12:21:41;;;;;;;0.60;0.60;;;4.10;99.90;;;;;;4912737;29;20201;-82
2021/03/04 12:24:11;;;;;;;0.50;0.50;;;4.60;99.90;;;;;;4912440;29;20260;-82
2021/03/04 12:26:38;;;;;;;0.55;0.55;;;4.70;99.90;;;;;;4911396;29;20244;-83
2021/03/04 12:29:25;;;;;;;0.50;0.50;;;4.70;99.90;;;;;;4912847;29;20264;-82
2021/03/04 12:31:51;;;;;;;0.60;0.60;;;4.30;99.90;;;;;;4906023;29;20641;-82
2021/03/04 12:34:17;;;;;;;0.60;0.60;;;4.80;99.90;;;;;;4912351;29;20208;-82
2021/03/04 12:36:46;;;;;;;0.50;0.50;;;4.80;99.90;;;;;;4912261;29;20209;-82
2021/03/04 12:39:14;;;;;;;0.60;0.60;;;4.70;99.90;;;;;;4914006;29;20205;-83
2021/03/04 12:41:40;;;;;;;0.55;0.55;;;4.60;99.90;;;;;;4911921;29;20264;-83
2021/03/04 12:44:06;;;;;;;0.60;0.60;;;4.80;99.90;;;;;;4912224;29;20658;-83
2021/03/04 12:46:33;;;;;;;0.55;0.55;;;4.90;99.90;;;;;;4911323;29;20241;-82
2021/03/04 12:48:59;;;;;;;0.50;0.50;;;4.90;99.90;;;;;;4912521;29;20213;-82
2021/03/04 12:51:25;;;;;;;0.60;0.60;;;4.90;99.90;;;;;;4912032;29;20239;-82
2021/03/04 12:53:51;;;;;;;0.60;0.60;;;4.90;99.90;;;;;;4916032;29;20563;-82
2021/03/04 12:56:18;;;;;;;0.50;0.50;;;5.00;99.90;;;;;;4914000;29;20216;-82
2021/03/04 12:58:44;;;;;;;0.50;0.50;;;4.90;99.90;;;;;;4916155;29;20699;-82
2021/03/04 13:01:10;;;;;;;0.57;0.57;;;5.10;99.90;;;;;;4912444;29;20205;-82
2021/03/04 13:03:37;;;;;;;0.60;0.60;;;4.90;99.90;;;;;;4915275;29;20205;-82
2021/03/04 13:06:04;;;;;;;0.60;0.60;;;5.00;99.90;;;;;;4915303;29;20698;-80
2021/03/04 13:08:30;;;;;;;0.60;0.60;;;5.10;99.90;;;;;;4915647;29;20213;-82
2021/03/04 13:10:56;;;;;;;0.60;0.60;;;5.60;99.90;;;;;;4916540;29;20213;-82
2021/03/04 13:13:25;;;;;;;0.60;0.60;;;5.00;99.90;;;;;;4907269;29;20205;-84
2021/03/04 13:15:51;;;;;;;0.50;0.50;;;4.90;99.90;;;;;;4915566;29;20229;-85
2021/03/04 13:18:37;;;;;;;0.60;0.60;;;5.10;99.90;;;;;;4914534;29;20217;-85
2021/03/04 13:21:04;;;;;;;0.57;0.57;;;4.70;99.90;;;;;;4919731;29;20197;-84
2021/03/04 13:23:33;;;;;;;0.60;0.60;;;9.80;99.90;;;;;;4912068;29;20234;-87
2021/03/04 13:26:02;;;;;;;0.50;0.50;;;4.60;99.90;;;;;;5071092;23;20246;-83
2021/03/04 13:28:48;;;;;;;0.60;0.60;;;6.70;99.90;;;;;;4915305;29;20234;-84
2021/03/04 13:31:29;;;;;;;0.60;0.60;;;4.20;99.90;;;;;;4923743;29;20224;-82
2021/03/04 13:34:07;;;;;;;0.60;0.60;;;4.40;99.90;;;;;;4925025;29;20185;-83
2021/03/04 13:36:41;;;;;;;0.60;0.60;;;4.60;99.90;;;;;;4924654;29;20196;-83
2021/03/04 13:39:12;;;;;;;0.50;0.50;;;5.10;99.90;;;;;;5353222;23;20475;-82
2021/03/04 13:41:38;;;;;;;0.60;0.60;;;6.90;99.90;;;;;;4924632;29;20213;-84
2021/03/04 13:44:07;;;;;;;0.60;0.60;;;4.50;99.90;;;;;;4929385;29;20402;-82
2021/03/04 13:46:34;;;;;;;0.60;0.60;;;4.80;99.90;;;;;;4943072;29;20196;-83
2021/03/04 13:49:07;;;;;;;0.60;0.60;;;6.80;99.90;;;;;;4941917;29;20205;-83
2021/03/04 13:51:39;;;;;;;0.50;0.50;;;5.20;99.90;;;;;;5012014;23;20257;-83
2021/03/04 13:54:18;;;;;;;0.50;0.50;;;6.50;99.90;;;;;;4941078;29;20229;-82
2021/03/04 13:56:44;;;;;;;0.50;0.50;;;6.40;99.90;;;;;;4928986;29;20201;-86
2021/03/04 13:59:25;;;;;;;0.60;0.60;;;4.90;99.90;;;;;;4923587;29;20300;-85
2021/03/04 14:20:05;;;;;;;0.50;0.50;;;4.90;99.90;;;;;;5014190;23;20196;-82
2021/03/04 14:22:38;;;;;;;0.57;0.57;;;4.60;99.90;;;;;;4909313;29;20213;-84
2021/03/04 14:25:06;;;;;;;0.60;0.60;;;6.10;99.90;;;;;;4912699;29;20240;-85
2021/03/04 14:27:38;;;;;;;0.50;0.50;;;5.90;99.90;;;;;;4908556;29;20227;-84
2021/03/04 15:42:59;;;;;;;0.60;0.60;;;5.10;99.90;;;;;;4913998;29;20696;-86
2021/03/04 15:45:26;;;;;;;0.50;0.50;;;3.80;99.90;;;;;;4917061;29;20248;-86
2021/03/04 15:47:52;;;;;;;0.60;0.60;;;5.10;99.90;;;;;;4918363;29;20232;-86
2021/03/04 15:50:20;;;;;;;0.60;0.60;;;4.30;99.90;;;;;;4914163;29;20235;-85
2021/03/04 15:52:46;;;;;;;0.50;0.50;;;5.00;99.90;;;;;;4914164;29;20217;-84
2021/03/04 15:55:13;;;;;;;0.60;0.60;;;5.10;99.90;;;;;;4914406;29;20209;-87
2021/03/04 15:57:40;;;;;;;0.60;0.60;;;5.10;99.90;;;;;;4915987;29;20209;-86
2021/03/04 16:00:09;;;;;;;0.50;0.50;;;5.00;99.90;;;;;;4916122;29;20228;-86
2021/03/04 16:02:35;;;;;;;0.50;0.50;;;5.10;99.90;;;;;;4914103;29;20272;-86
2021/03/04 16:05:01;;;;;;;0.50;0.50;;;4.00;99.90;;;;;;4914510;29;20229;-87
2021/03/04 16:07:27;;;;;;;0.60;0.60;;;5.00;99.90;;;;;;4905316;29;20216;-86
2021/03/04 16:09:56;;;;;;;0.60;0.60;;;4.70;99.90;;;;;;4913955;29;20228;-87
2021/03/04 16:12:22;;;;;;;0.60;0.60;;;4.70;99.90;;;;;;4913021;29;20732;-86
2021/03/04 16:14:49;;;;;;;0.50;0.50;;;5.00;99.90;;;;;;4914147;29;20656;-85
2021/03/04 16:17:16;;;;;;;0.50;0.50;;;4.10;99.90;;;;;;4914417;29;20212;-87
2021/03/04 16:19:59;;;;;;;0.60;0.60;;;6.30;99.90;;;;;;4909126;29;20225;-87
2021/03/04 16:22:28;;;;;;;0.50;0.50;;;4.70;99.90;;;;;;4916313;29;20212;-86
2021/03/04 16:25:06;;;;;;;;;;;;;;;;;;;;;
2021/03/04 16:27:39;;;;;;;0.60;0.60;;;4.60;99.90;;;;;;4923794;29;20200;-87
2021/03/04 16:30:07;;;;;;;0.55;0.55;;;4.60;99.90;;;;;;4919067;29;20244;-86
2021/03/04 16:32:38;;;;;;;0.60;0.60;;;4.50;99.90;;;;;;4910357;29;20209;-86
2021/03/04 16:35:21;;;;;;;0.60;0.60;;;6.30;99.90;;;;;;4911156;29;20335;-87
2021/03/04 16:38:02;;;;;;;;;;;;;;;;;;;;;
2021/03/04 16:40:30;;;;;;;0.60;0.60;;;4.30;99.90;;;;;;4917364;29;20210;-86
2021/03/04 16:43:01;;;;;;;0.60;0.60;;;5.40;99.90;;;;;;4901497;29;20232;-86
2021/03/04 16:45:28;;;;;;;0.60;0.60;;;3.00;99.90;;;;;;4903732;29;20233;-86
2021/03/04 16:47:55;;;;;;;0.50;0.50;;;7.30;99.90;;;;;;4900126;29;20281;-87
2021/03/04 16:50:24;;;;;;;0.50;0.50;;;4.90;99.90;;;;;;4903279;29;20240;-87
2021/03/04 17:08:47;;;;;;;0.50;0.50;;;3.60;99.90;;;;;;5194210;23;20886;-81
2021/03/04 17:52:21;;;;;;;0.60;0.60;;;2.90;99.90;;;;;;5915438;23;20278;-83
2021/03/04 17:54:50;;;;;;;0.60;0.60;;;3.30;99.90;;;;;;5263020;23;20241;-83
2021/03/04 17:57:17;;;;;;;0.50;0.50;;;4.40;99.90;;;;;;4906831;29;20213;-86
2021/03/04 18:00:06;;;;;;;0.60;0.60;;;3.10;99.90;;;;;;4913985;29;20197;-86
2021/03/04 18:13:52;;;;;;;0.50;0.50;;;2.90;99.90;;;;;;5723681;23;20255;-84
2021/03/04 18:16:34;;;;;;;0.60;0.60;;;1.60;99.90;;;;;;5064197;23;20274;-83
2021/03/04 18:19:00;;;;;;;0.60;0.60;;;3.60;99.90;;;;;;4921628;29;20631;-82
2021/03/04 18:21:26;;;;;;;0.50;0.50;;;1.20;99.90;;;;;;4924447;29;20244;-82
2021/03/04 18:24:01;;;;;;;0.55;0.55;;;1.80;99.90;;;;;;4925499;29;20569;-86
2021/03/04 18:26:27;;;;;;;0.55;0.55;;;2.40;99.90;;;;;;4974097;23;20251;-80
2021/03/04 18:34:12;;;;;;;0.60;0.60;;;2.80;99.90;;;;;;5085291;23;20243;-83
2021/03/04 19:26:58;;;;;;;0.60;0.60;;;2.60;99.90;;;;;;4937711;23;20197;-81
2021/03/04 19:45:00;;;;;;;0.60;0.60;;;2.50;99.90;;;;;;5363541;23;20248;-83
2021/03/04 19:50:02;;;;;;;0.60;0.60;;;2.50;99.90;;;;;;4893169;23;20249;-81
2021/03/04 20:13:32;;;;;;;0.50;0.50;;;2.60;99.90;;;;;;5029810;23;20248;-83
2021/03/04 20:16:02;;;;;;;0.50;0.50;;;3.70;99.90;;;;;;5136190;23;20257;-83
2021/03/04 20:26:23;;;;;;;0.60;0.60;;;2.60;99.90;;;;;;5958229;23;20191;-80
2021/03/04 20:34:57;;;;;;;0.60;0.60;;;2.70;99.90;;;;;;5072290;23;20550;-83
2021/03/04 20:37:44;;;;;;;0.60;0.60;;;5.20;99.90;;;;;;4938286;29;20237;-84
2021/03/04 20:40:12;;;;;;;0.50;0.50;;;2.20;99.90;;;;;;4932261;29;20201;-83
2021/03/04 20:42:48;;;;;;;0.50;0.50;;;2.70;99.90;;;;;;4933171;29;20280;-84
2021/03/04 20:45:15;;;;;;;0.50;0.50;;;2.40;99.90;;;;;;4934820;29;20268;-83
2021/03/04 20:47:41;;;;;;;0.50;0.50;;;3.90;99.90;;;;;;4910604;29;20208;-83
2021/03/04 20:50:11;;;;;;;0.60;0.60;;;2.60;99.90;;;;;;4911397;29;20224;-83
2021/03/04 20:52:38;;;;;;;0.60;0.60;;;2.60;99.90;;;;;;4904865;29;20205;-84
2021/03/04 20:55:06;;;;;;;0.60;0.60;;;2.50;99.90;;;;;;4905110;29;20201;-83
2021/03/04 20:57:32;;;;;;;0.60;0.60;;;2.60;99.90;;;;;;4907351;29;20233;-84
2021/03/04 20:59:58;;;;;;;0.60;0.60;;;2.80;99.90;;;;;;4902906;29;20206;-83
2021/03/04 21:02:24;;;;;;;0.60;0.60;;;2.60;99.90;;;;;;4904883;29;20221;-83
2021/03/04 21:04:53;;;;;;;0.50;0.50;;;2.60;99.90;;;;;;4907212;29;20260;-84
2021/03/04 21:07:22;;;;;;;0.50;0.50;;;2.60;99.90;;;;;;4924059;29;20269;-84
2021/03/04 21:09:52;;;;;;;0.50;0.50;;;2.60;99.90;;;;;;4920653;29;20212;-83
2021/03/04 21:12:21;;;;;;;0.60;0.60;;;2.60;99.90;;;;;;4917953;29;20263;-84
2021/03/04 21:14:54;;;;;;;0.50;0.50;;;0.60;99.90;;;;;;4916307;29;20193;-82
2021/03/04 21:17:23;;;;;;;0.60;0.60;;;2.60;99.90;;;;;;5000674;23;20245;-82
2021/03/04 21:22:26;;;;;;;0.50;0.50;;;2.60;99.90;;;;;;4981063;23;20696;-83
2021/03/04 21:24:53;;;;;;;0.50;0.50;;;2.50;99.90;;;;;;4922923;29;20233;-83
2021/03/04 21:27:22;;;;;;;0.60;0.60;;;2.40;99.90;;;;;;4935243;29;20201;-81
2021/03/04 21:32:27;;;;;;;0.60;0.60;;;2.40;99.90;;;;;;5369483;23;20791;-81
2021/03/04 21:53:01;;;;;;;0.60;0.60;;;2.30;99.90;;;;;;5274981;23;20277;-83
2021/03/04 21:55:27;;;;;;;0.60;0.60;;;2.10;99.90;;;;;;4920838;29;20212;-82
2021/03/04 21:57:54;;;;;;;0.50;0.50;;;2.00;99.90;;;;;;4918219;29;20219;-82
2021/03/04 22:00:21;;;;;;;0.60;0.60;;;1.40;99.90;;;;;;4918613;29;20213;-83
2021/03/04 22:02:47;;;;;;;0.60;0.60;;;2.20;99.90;;;;;;4917026;29;20318;-83
2021/03/04 22:05:21;;;;;;;0.60;0.60;;;1.50;99.90;;;;;;4924842;29;20224;-82
2021/03/04 22:07:48;;;;;;;0.60;0.60;;;2.10;99.90;;;;;;4926665;29;20202;-82
2021/03/04 22:10:16;;;;;;;0.57;0.57;;;2.80;99.90;;;;;;4927298;29;20216;-82
2021/03/04 22:12:47;;;;;;;0.60;0.60;;;2.40;99.90;;;;;;4928660;29;20193;-82
2021/03/04 22:15:14;;;;;;;0.50;0.50;;;0.10;99.90;;;;;;4928881;29;20201;-82
2021/03/04 22:17:41;;;;;;;0.50;0.50;;;2.10;99.90;;;;;;4928893;29;20225;-82
2021/03/04 22:20:09;;;;;;;0.50;0.50;;;1.40;99.90;;;;;;4927722;29;20228;-83
2021/03/04 22:22:35;;;;;;;0.60;0.60;;;3.80;99.90;;;;;;4927380;29;20212;-83
2021/03/04 22:25:02;;;;;;;0.60;0.60;;;4.00;99.90;;;;;;4928897;29;20713;-83
2021/03/04 22:27:29;;;;;;;0.60;0.60;;;5.10;99.90;;;;;;4922234;29;20209;-83
2021/03/04 22:29:55;;;;;;;0.57;0.57;;;0.90;99.90;;;;;;4917288;29;20257;-83
2021/03/04 22:32:21;;;;;;;0.55;0.55;;;1.70;99.90;;;;;;4916769;29;20213;-82
2021/03/04 22:34:48;;;;;;;0.60;0.60;;;0.70;99.90;;;;;;4918059;29;20598;-83
2021/03/04 22:37:14;;;;;;;0.60;0.60;;;1.80;99.90;;;;;;4915205;29;20217;-83
2021/03/04 22:39:40;;;;;;;0.60;0.60;;;1.80;99.90;;;;;;4913114;29;20678;-82
2021/03/04 22:42:07;;;;;;;0.60;0.60;;;1.60;99.90;;;;;;4912981;29;20416;-83
2021/03/04 22:44:35;;;;;;;0.60;0.60;;;1.60;99.90;;;;;;4913414;29;20219;-83
2021/03/04 22:47:01;;;;;;;0.60;0.60;;;1.50;99.90;;;;;;4913632;29;20693;-83
2021/03/04 22:49:27;;;;;;;0.50;0.50;;;1.10;99.90;;;;;;4913155;29;20220;-83
2021/03/04 22:51:53;;;;;;;0.60;0.60;;;1.20;99.90;;;;;;4911272;29;20647;-83
2021/03/04 22:54:19;;;;;;;0.60;0.60;;;1.50;99.90;;;;;;4913819;29;20213;-83
2021/03/04 22:56:45;;;;;;;0.60;0.60;;;1.50;99.90;;;;;;4914140;29;20209;-83
2021/03/04 22:59:11;;;;;;;0.50;0.50;;;1.40;99.90;;;;;;4913902;29;20507;-83
2021/03/04 23:01:39;;;;;;;0.50;0.50;;;1.40;99.90;;;;;;4913507;29;20268;-83
2021/03/04 23:04:05;;;;;;;0.60;0.60;;;1.40;99.90;;;;;;4927810;29;20189;-83
2021/03/04 23:30:39;;;;;;;0.52;0.52;;;1.20;99.90;;;;;;4947944;23;20244;-82
2021/03/04 23:33:06;;;;;;;0.60;0.60;;;2.60;99.90;;;;;;4920579;29;20232;-82
2021/03/04 23:35:32;;;;;;;0.60;0.60;;;1.50;99.90;;;;;;4920080;29;20339;-83
2021/03/04 23:37:59;;;;;;;0.57;0.57;;;0.90;99.90;;;;;;4920638;29;20213;-83
